createdAt,value
2018-04-02T00:02:09.820Z,97669.52
2018-04-02T00:04:39.630Z,97672.78
2018-04-02T00:07:07.912Z,97661.05
2018-04-02T00:09:36.271Z,97660.13
2018-04-02T00:12:04.532Z,97660.48
2018-04-02T00:14:33.555Z,97653.28
2018-04-02T00:17:01.853Z,97653.10
2018-04-02T00:19:30.105Z,97643.80
2018-04-02T00:21:58.393Z,97641.80
2018-04-02T00:24:26.668Z,97641.67
2018-04-02T00:26:55.821Z,97635.10
2018-04-02T00:29:24.445Z,97640.73
2018-04-02T00:31:52.721Z,97637.56
2018-04-02T00:34:20.964Z,97638.70
2018-04-02T00:36:49.236Z,97623.89
2018-04-02T00:39:17.505Z,97621.20
2018-04-02T00:41:45.779Z,97624.80
2018-04-02T00:44:14.028Z,97619.47
2018-04-02T00:46:42.298Z,97616.75
2018-04-02T00:49:10.557Z,97625.36
2018-04-02T00:51:38.829Z,97625.38
2018-04-02T00:54:07.113Z,97620.31
2018-04-02T00:56:35.377Z,97627.30
2018-04-02T00:59:04.408Z,97621.36
2018-04-02T01:01:32.682Z,97615.81
2018-04-02T01:04:02.425Z,97613.22
2018-04-02T01:06:30.724Z,97616.67
2018-04-02T01:08:59.103Z,97615.08
2018-04-02T01:11:27.374Z,97607.78
2018-04-02T01:13:56.434Z,97609.05
2018-04-02T01:16:24.705Z,97607.41
2018-04-02T01:18:52.986Z,97607.34
2018-04-02T01:21:21.249Z,97612.27
2018-04-02T01:23:50.868Z,97617.09
2018-04-02T01:26:19.917Z,97605.44
2018-04-02T01:28:48.179Z,97604.22
2018-04-02T01:31:16.419Z,97607.44
2018-04-02T01:33:44.688Z,97604.98
2018-04-02T01:36:12.932Z,97597.67
2018-04-02T01:38:41.964Z,97590.98
2018-04-02T01:41:10.242Z,97592.39
2018-04-02T01:43:38.517Z,97588.27
2018-04-02T01:46:07.532Z,97581.11
2018-04-02T01:48:35.820Z,97588.10
2018-04-02T01:51:04.075Z,97587.68
2018-04-02T01:53:32.356Z,97582.59
2018-04-02T01:56:01.414Z,97589.61
2018-04-02T01:58:29.705Z,97592.17
2018-04-02T02:00:57.956Z,97581.95
2018-04-02T02:03:26.283Z,97577.32
2018-04-02T02:05:54.557Z,97568.53
2018-04-02T02:08:23.688Z,97569.14
2018-04-02T02:10:51.967Z,97567.22
2018-04-02T02:13:21.186Z,97560.67
2018-04-02T02:15:49.475Z,97572.00
2018-04-02T02:18:17.753Z,97569.16
2018-04-02T02:20:46.009Z,97566.53
2018-04-02T02:23:14.287Z,97565.85
2018-04-02T02:25:42.544Z,97559.67
2018-04-02T02:28:10.820Z,97558.28
2018-04-02T02:30:39.114Z,97556.97
2018-04-02T02:33:07.380Z,97553.42
2018-04-02T02:35:36.400Z,97549.28
2018-04-02T02:38:04.644Z,97548.98
2018-04-02T02:40:32.924Z,97546.44
2018-04-02T02:43:01.175Z,97545.53
2018-04-02T02:45:29.451Z,97551.28
2018-04-02T02:47:57.720Z,97545.44
2018-04-02T02:50:26.778Z,97541.30
2018-04-02T02:52:55.031Z,97540.26
2018-04-02T02:55:24.091Z,97537.84
2018-04-02T02:57:52.352Z,97534.98
2018-04-02T03:00:20.626Z,97535.48
2018-04-02T03:02:48.882Z,97537.28
2018-04-02T03:05:17.923Z,97535.46
2018-04-02T03:07:46.870Z,97529.83
2018-04-02T03:10:15.915Z,97525.86
2018-04-02T03:12:44.952Z,97536.33
2018-04-02T03:15:13.238Z,97527.36
2018-04-02T03:17:41.491Z,97533.65
2018-04-02T03:20:10.513Z,97524.70
2018-04-02T03:22:39.526Z,97525.14
2018-04-02T03:25:07.780Z,97528.67
2018-04-02T03:27:36.028Z,97526.55
2018-04-02T03:30:04.296Z,97533.97
2018-04-02T03:32:32.562Z,97535.77
2018-04-02T03:35:01.595Z,97526.23
2018-04-02T03:37:29.852Z,97538.80
2018-04-02T03:39:58.117Z,97538.17
2018-04-02T03:42:26.413Z,97542.91
2018-04-02T03:44:54.686Z,97531.52
2018-04-02T03:47:22.936Z,97532.83
2018-04-02T03:49:51.205Z,97526.04
2018-04-02T03:52:20.227Z,97527.25
2018-04-02T03:54:48.479Z,97521.50
2018-04-02T03:57:16.731Z,97518.39
2018-04-02T03:59:44.995Z,97518.17
2018-04-02T04:02:13.235Z,97519.48
2018-04-02T04:04:41.483Z,97518.75
2018-04-02T04:07:09.779Z,97523.36
2018-04-02T04:09:38.041Z,97510.97
2018-04-02T04:12:06.300Z,97510.89
2018-04-02T04:14:34.574Z,97508.17
2018-04-02T04:17:03.611Z,97511.30
2018-04-02T04:19:32.642Z,97516.17
2018-04-02T04:22:00.936Z,97512.23
2018-04-02T04:24:29.192Z,97514.95
2018-04-02T04:26:57.472Z,97508.45
2018-04-02T04:29:25.961Z,97505.60
2018-04-02T04:31:54.221Z,97510.48
2018-04-02T04:34:22.500Z,97503.38
2018-04-02T04:36:50.768Z,97496.59
2018-04-02T04:39:19.020Z,97498.21
2018-04-02T04:41:47.296Z,97496.18
2018-04-02T04:44:15.534Z,97500.70
2018-04-02T04:46:43.795Z,97497.57
2018-04-02T04:49:13.573Z,97503.19
2018-04-02T04:51:41.842Z,97506.11
2018-04-02T04:54:10.111Z,97502.86
2018-04-02T04:56:39.147Z,97500.87
2018-04-02T04:59:07.407Z,97508.25
2018-04-02T05:01:36.437Z,97506.07
2018-04-02T05:04:04.711Z,97499.88
2018-04-02T05:06:33.777Z,97499.47
2018-04-02T05:09:02.027Z,97501.96
2018-04-02T05:11:30.289Z,97503.00
2018-04-02T05:13:59.331Z,97489.48
2018-04-02T05:16:27.644Z,97497.44
2018-04-02T05:18:56.005Z,97491.51
2018-04-02T05:21:24.284Z,97495.36
2018-04-02T05:23:52.526Z,97495.69
2018-04-02T05:26:22.315Z,97500.53
2018-04-02T05:28:50.588Z,97497.95
2018-04-02T05:31:18.865Z,97499.66
2018-04-02T05:33:47.884Z,97494.35
2018-04-02T05:36:16.165Z,97496.80
2018-04-02T05:38:44.465Z,97501.15
2018-04-02T05:41:12.752Z,97494.77
2018-04-02T05:43:41.057Z,97491.36
2018-04-02T05:46:09.348Z,97490.55
2018-04-02T05:48:37.630Z,97487.82
2018-04-02T05:51:05.920Z,97495.30
2018-04-02T05:53:34.189Z,97489.40
2018-04-02T05:56:03.818Z,97492.32
2018-04-02T05:58:32.088Z,97494.52
2018-04-02T06:01:01.395Z,97493.51
2018-04-02T06:03:29.703Z,97490.80
2018-04-02T06:05:58.835Z,97486.06
2018-04-02T06:08:27.109Z,97487.36
2018-04-02T06:10:55.409Z,97474.45
2018-04-02T06:13:23.766Z,97481.05
2018-04-02T06:15:52.880Z,97482.97
2018-04-02T06:18:22.006Z,97483.36
2018-04-02T06:20:50.251Z,97477.45
2018-04-02T06:23:18.495Z,97477.48
2018-04-02T06:25:46.776Z,97479.67
2018-04-02T06:28:15.089Z,97478.03
2018-04-02T06:30:43.335Z,97478.42
2018-04-02T06:33:12.383Z,97472.41
2018-04-02T06:35:40.655Z,97470.42
2018-04-02T06:38:08.944Z,97479.50
2018-04-02T06:40:37.200Z,97479.80
2018-04-02T06:43:06.235Z,97477.84
2018-04-02T06:45:34.506Z,97472.01
2018-04-02T06:48:03.544Z,97465.47
2018-04-02T06:50:31.815Z,97457.50
2018-04-02T06:53:00.094Z,97462.50
2018-04-02T06:55:29.103Z,97458.52
2018-04-02T06:57:57.406Z,97464.22
2018-04-02T07:00:25.712Z,97458.79
2018-04-02T07:02:54.028Z,97456.57
2018-04-02T07:05:22.288Z,97456.42
2018-04-02T07:07:50.588Z,97445.97
2018-04-02T07:10:18.832Z,97449.45
2018-04-02T07:12:47.871Z,97456.83
2018-04-02T07:15:16.146Z,97456.77
2018-04-02T07:17:44.398Z,97459.82
2018-04-02T07:20:12.720Z,97451.86
2018-04-02T07:22:41.736Z,97465.50
2018-04-02T07:25:10.017Z,97447.45
2018-04-02T07:27:38.295Z,97445.82
2018-04-02T07:30:07.409Z,97455.89
2018-04-02T07:32:35.764Z,97446.77
2018-04-02T07:35:04.106Z,97443.75
2018-04-02T07:37:32.350Z,97444.79
2018-04-02T07:40:00.628Z,97452.72
2018-04-02T07:42:28.891Z,97448.09
2018-04-02T07:44:57.188Z,97439.48
2018-04-02T07:47:25.585Z,97450.67
2018-04-02T07:49:53.866Z,97439.92
2018-04-02T07:52:22.133Z,97443.02
2018-04-02T07:54:50.408Z,97443.73
2018-04-02T07:57:18.664Z,97445.88
2018-04-02T07:59:47.968Z,97446.19
2018-04-02T08:02:16.232Z,97439.95
2018-04-02T08:04:44.486Z,97427.44
2018-04-02T08:07:12.751Z,97428.27
2018-04-02T08:09:41.070Z,97428.41
2018-04-02T08:12:09.321Z,97429.96
2018-04-02T08:14:37.593Z,97422.97
2018-04-02T08:17:05.844Z,97428.55
2018-04-02T08:19:34.116Z,97423.64
2018-04-02T08:22:02.375Z,97424.13
2018-04-02T08:24:30.646Z,97430.39
2018-04-02T08:26:58.907Z,97426.56
2018-04-02T08:29:27.278Z,97430.73
2018-04-02T08:31:55.625Z,97419.13
2018-04-02T08:34:24.003Z,97420.51
2018-04-02T08:36:52.276Z,97415.19
2018-04-02T08:39:20.558Z,97417.10
2018-04-02T08:41:48.835Z,97410.16
2018-04-02T08:44:17.887Z,97410.56
2018-04-02T08:46:46.142Z,97402.77
2018-04-02T08:49:14.400Z,97410.96
2018-04-02T08:51:43.511Z,97399.98
2018-04-02T08:54:12.763Z,97401.13
2018-04-02T08:56:41.099Z,97389.34
2018-04-02T08:59:09.640Z,97396.34
2018-04-02T09:01:38.090Z,97393.62
2018-04-02T09:04:06.386Z,97391.47
2018-04-02T09:06:34.716Z,97392.23
2018-04-02T09:09:03.016Z,97396.20
2018-04-02T09:11:31.578Z,97386.73
2018-04-02T09:14:00.632Z,97390.98
2018-04-02T09:16:29.784Z,97380.66
2018-04-02T09:18:58.986Z,97384.72
2018-04-02T09:21:29.325Z,97380.63
2018-04-02T09:23:58.583Z,97372.69
2018-04-02T09:26:27.101Z,97381.08
2018-04-02T09:28:55.658Z,97384.88
2018-04-02T09:31:24.249Z,97376.94
2018-04-02T09:33:52.569Z,97378.23
2018-04-02T09:36:20.968Z,97369.67
2018-04-02T09:38:50.858Z,97374.30
2018-04-02T09:41:19.246Z,97369.38
2018-04-02T09:43:47.733Z,97368.38
2018-04-02T09:46:16.936Z,97365.63
2018-04-02T09:48:46.089Z,97352.86
2018-04-02T09:51:14.521Z,97359.50
2018-04-02T09:53:42.873Z,97353.89
2018-04-02T09:56:11.263Z,97345.94
2018-04-02T09:58:39.712Z,97344.59
2018-04-02T10:01:12.631Z,97342.09
2018-04-02T10:03:40.927Z,97329.16
2018-04-02T10:06:09.273Z,97327.36
2018-04-02T10:08:37.563Z,97324.32
2018-04-02T10:11:06.620Z,97319.24
2018-04-02T10:13:34.935Z,97310.55
2018-04-02T10:16:04.621Z,97299.31
2018-04-02T10:18:32.908Z,97299.25
2018-04-02T10:21:01.184Z,97287.41
2018-04-02T10:23:30.337Z,97293.13
2018-04-02T10:25:58.748Z,97291.08
2018-04-02T10:28:27.114Z,97288.50
2018-04-02T10:30:55.418Z,97279.58
2018-04-02T10:33:23.734Z,97271.09
2018-04-02T10:35:52.066Z,97266.97
2018-04-02T10:38:20.410Z,97262.83
2018-04-02T10:40:49.475Z,97261.04
2018-04-02T10:43:17.839Z,97263.45
2018-04-02T10:45:46.050Z,97247.27
2018-04-02T10:48:14.338Z,97239.20
2018-04-02T10:50:42.616Z,97230.27
2018-04-02T10:53:10.906Z,97235.39
2018-04-02T10:55:40.004Z,97229.63
2018-04-02T10:58:09.053Z,97232.29
2018-04-02T11:00:37.325Z,97229.09
2018-04-02T11:03:05.617Z,97215.80
2018-04-02T11:05:33.885Z,97212.17
2018-04-02T11:08:02.242Z,97210.89
2018-04-02T11:10:30.517Z,97210.40
2018-04-02T11:12:58.837Z,97198.06
2018-04-02T11:15:27.892Z,97201.23
2018-04-02T11:17:56.265Z,97200.38
2018-04-02T11:20:24.524Z,97186.50
2018-04-02T11:22:53.605Z,97176.73
2018-04-02T11:25:21.899Z,97175.73
2018-04-02T11:27:51.692Z,97175.48
2018-04-02T11:30:20.052Z,97174.92
2018-04-02T11:32:49.092Z,97175.75
2018-04-02T11:35:17.404Z,97172.89
2018-04-02T11:37:45.742Z,97168.77
2018-04-02T11:40:14.011Z,97166.20
2018-04-02T11:42:43.808Z,97172.46
2018-04-02T11:45:12.068Z,97167.45
2018-04-02T11:47:41.118Z,97165.09
2018-04-02T11:50:09.404Z,97163.04
2018-04-02T11:52:37.672Z,97152.81
2018-04-02T11:55:06.072Z,97147.41
2018-04-02T11:57:34.368Z,97137.56
2018-04-02T12:00:03.774Z,97138.09
2018-04-02T12:02:32.031Z,97135.62
2018-04-02T12:05:00.334Z,97132.93
2018-04-02T12:07:28.673Z,97132.12
2018-04-02T12:09:57.043Z,97123.88
2018-04-02T12:12:25.355Z,97127.11
2018-04-02T12:14:54.421Z,97119.48
2018-04-02T12:17:22.695Z,97123.30
2018-04-02T12:19:51.009Z,97122.20
2018-04-02T12:22:19.283Z,97120.86
2018-04-02T12:24:47.576Z,97106.28
2018-04-02T12:27:16.642Z,97112.67
2018-04-02T12:29:45.687Z,97108.41
2018-04-02T12:32:14.714Z,97101.32
2018-04-02T12:34:43.015Z,97099.13
2018-04-02T12:37:11.311Z,97091.52
2018-04-02T12:39:39.616Z,97089.91
2018-04-02T12:42:08.724Z,97083.05
2018-04-02T12:44:37.790Z,97083.02
2018-04-02T12:47:06.071Z,97064.13
2018-04-02T12:49:34.360Z,97067.70
2018-04-02T12:52:02.774Z,97065.97
2018-04-02T12:54:31.042Z,97063.06
2018-04-02T12:56:59.317Z,97064.09
2018-04-02T12:59:27.659Z,97051.42
2018-04-02T13:01:55.965Z,97048.27
2018-04-02T13:04:24.309Z,97051.77
2018-04-02T13:06:52.586Z,97040.70
2018-04-02T13:09:20.885Z,97038.07
2018-04-02T13:11:49.174Z,97030.13
2018-04-02T13:14:17.473Z,97020.99
2018-04-02T13:16:45.802Z,97022.17
2018-04-02T13:19:14.144Z,97010.29
2018-04-02T13:21:42.384Z,97013.48
2018-04-02T13:24:11.511Z,97019.41
2018-04-02T13:26:39.806Z,97016.81
2018-04-02T13:29:08.060Z,97022.24
2018-04-02T13:31:36.353Z,97011.79
2018-04-02T13:34:04.612Z,97001.83
2018-04-02T13:36:32.900Z,97006.84
2018-04-02T13:39:01.181Z,97006.59
2018-04-02T13:41:29.527Z,97003.70
2018-04-02T13:43:57.939Z,97016.19
2018-04-02T13:46:26.267Z,97004.11
2018-04-02T13:48:55.708Z,97000.75
2018-04-02T13:51:24.806Z,96996.63
2018-04-02T13:53:53.115Z,96991.05
2018-04-02T13:56:22.172Z,96995.63
2018-04-02T13:58:50.467Z,96990.62
2018-04-02T14:01:18.836Z,96995.11
2018-04-02T14:03:47.152Z,97000.16
2018-04-02T14:06:16.215Z,96993.56
2018-04-02T14:08:45.244Z,96984.03
2018-04-02T14:11:13.563Z,96972.55
2018-04-02T14:13:41.825Z,96978.00
2018-04-02T14:16:10.125Z,96967.08
2018-04-02T14:18:38.407Z,96967.43
2018-04-02T14:21:06.703Z,96969.97
2018-04-02T14:23:34.969Z,96961.53
2018-04-02T14:26:03.273Z,96962.53
2018-04-02T14:28:32.337Z,96962.00
2018-04-02T14:31:00.619Z,96953.97
2018-04-02T14:33:28.985Z,96963.98
2018-04-02T14:35:57.330Z,96953.33
2018-04-02T14:38:26.478Z,96949.27
2018-04-02T14:40:54.755Z,96942.63
2018-04-02T14:43:23.068Z,96935.45
2018-04-02T14:45:51.358Z,96929.71
2018-04-02T14:48:19.657Z,96920.64
2018-04-02T14:50:47.947Z,96926.12
2018-04-02T14:53:16.234Z,96922.80
2018-04-02T14:55:44.487Z,96911.14
2018-04-02T14:58:12.777Z,96912.28
2018-04-02T15:00:41.047Z,96906.25
2018-04-02T15:03:09.323Z,96910.29
2018-04-02T15:05:38.348Z,96918.29
2018-04-02T15:08:06.656Z,96906.06
2018-04-02T15:10:34.938Z,96902.96
2018-04-02T15:13:03.223Z,96896.08
2018-04-02T15:15:31.533Z,96899.81
2018-04-02T15:17:59.835Z,96888.24
2018-04-02T15:20:28.144Z,96887.05
2018-04-02T15:22:56.458Z,96885.38
2018-04-02T15:25:24.763Z,96885.25
2018-04-02T15:27:53.114Z,96879.00
2018-04-02T15:30:21.395Z,96871.58
2018-04-02T15:32:50.459Z,96869.92
2018-04-02T15:35:18.766Z,96875.82
2018-04-02T15:37:47.953Z,96863.16
2018-04-02T15:40:16.231Z,96856.70
2018-04-02T15:42:45.321Z,96853.86
2018-04-02T15:45:14.734Z,96853.23
2018-04-02T15:47:43.826Z,96850.07
2018-04-02T15:50:12.084Z,96851.15
2018-04-02T15:52:40.352Z,96846.78
2018-04-02T15:55:08.644Z,96851.08
2018-04-02T15:57:36.916Z,96848.30
2018-04-02T16:00:05.979Z,96847.27
2018-04-02T16:02:34.238Z,96838.00
2018-04-02T16:05:02.504Z,96842.15
2018-04-02T16:07:31.566Z,96843.84
2018-04-02T16:09:59.855Z,96837.44
2018-04-02T16:12:28.187Z,96831.37
2018-04-02T16:14:58.025Z,96826.52
2018-04-02T16:17:27.141Z,96824.48
2018-04-02T16:19:55.676Z,96820.08
2018-04-02T16:22:24.037Z,96819.11
2018-04-02T16:24:52.346Z,96815.19
2018-04-02T16:27:20.632Z,96819.72
2018-04-02T16:29:48.906Z,96833.41
2018-04-02T16:32:17.222Z,96823.83
2018-04-02T16:34:45.516Z,96822.81
2018-04-02T16:37:13.772Z,96824.06
2018-04-02T16:39:42.071Z,96819.00
2018-04-02T16:42:10.432Z,96812.41
2018-04-02T16:44:39.476Z,96819.62
2018-04-02T16:47:07.740Z,96820.08
2018-04-02T16:49:36.034Z,96822.84
2018-04-02T16:52:04.387Z,96820.59
2018-04-02T16:54:33.454Z,96819.69
2018-04-02T16:57:01.744Z,96813.52
2018-04-02T16:59:30.164Z,96810.36
2018-04-02T17:01:58.485Z,96819.55
2018-04-02T17:04:27.566Z,96812.69
2018-04-02T17:06:56.020Z,96805.98
2018-04-02T17:09:24.356Z,96795.02
2018-04-02T17:11:52.625Z,96782.95
2018-04-02T17:14:20.887Z,96788.20
2018-04-02T17:16:49.224Z,96786.17
2018-04-02T17:19:17.595Z,96775.30
2018-04-02T17:21:46.728Z,96773.30
2018-04-02T17:24:15.000Z,96765.71
2018-04-02T17:26:43.291Z,96768.41
2018-04-02T17:29:11.659Z,96773.45
2018-04-02T17:31:39.952Z,96772.84
2018-04-02T17:34:08.223Z,96771.78
2018-04-02T17:36:36.540Z,96767.32
2018-04-02T17:39:04.822Z,96767.35
2018-04-02T17:41:33.106Z,96771.83
2018-04-02T17:44:01.371Z,96770.46
2018-04-02T17:46:29.670Z,96767.73
2018-04-02T17:48:57.941Z,96757.66
2018-04-02T17:51:26.278Z,96750.23
2018-04-02T17:53:54.549Z,96755.34
2018-04-02T17:56:22.824Z,96747.04
2018-04-02T17:58:51.090Z,96748.45
2018-04-02T18:01:20.881Z,96736.25
2018-04-02T18:03:49.136Z,96725.81
2018-04-02T18:06:17.413Z,96718.84
2018-04-02T18:08:45.698Z,96710.63
2018-04-02T18:11:14.002Z,96698.09
2018-04-02T18:13:42.287Z,96685.20
2018-04-02T18:16:10.714Z,96684.31
2018-04-02T18:18:40.479Z,96688.55
2018-04-02T18:21:09.535Z,96687.28
2018-04-02T18:23:38.568Z,96691.20
2018-04-02T18:26:08.435Z,96693.13
2018-04-02T18:28:36.715Z,96692.65
2018-04-02T18:31:05.753Z,96698.70
2018-04-02T18:33:34.016Z,96694.86
2018-04-02T18:36:02.323Z,96691.19
2018-04-02T18:38:30.570Z,96692.33
2018-04-02T18:40:59.702Z,96694.80
2018-04-02T18:43:27.976Z,96693.07
2018-04-02T18:45:57.056Z,96691.98
2018-04-02T18:48:25.329Z,96697.72
2018-04-02T18:50:53.694Z,96705.61
2018-04-02T18:53:22.700Z,96707.72
2018-04-02T18:55:50.960Z,96702.81
2018-04-02T18:58:20.009Z,96712.64
2018-04-02T19:00:48.259Z,96713.23
2018-04-02T19:03:17.354Z,96732.42
2018-04-02T19:05:45.638Z,96717.78
2018-04-02T19:08:13.917Z,96723.80
2018-04-02T19:10:42.177Z,96731.69
2018-04-02T19:13:10.465Z,96734.05
2018-04-02T19:15:38.731Z,96729.55
2018-04-02T19:18:07.018Z,96736.00
2018-04-02T19:20:35.292Z,96726.43
2018-04-02T19:23:04.332Z,96726.77
2018-04-02T19:25:32.613Z,96737.73
2018-04-02T19:28:00.895Z,96745.77
2018-04-02T19:30:29.162Z,96745.66
2018-04-02T19:32:58.228Z,96742.79
2018-04-02T19:35:26.480Z,96744.34
2018-04-02T19:37:54.833Z,96757.55
2018-04-02T19:40:23.867Z,96763.86
2018-04-02T19:42:52.180Z,96767.33
2018-04-02T19:45:20.498Z,96764.40
2018-04-02T19:47:48.788Z,96758.44
2018-04-02T19:50:17.051Z,96736.16
2018-04-02T19:52:45.409Z,96733.70
2018-04-02T19:55:13.684Z,96730.22
2018-04-02T19:57:42.741Z,96725.06
2018-04-02T20:00:10.998Z,96716.38
2018-04-02T20:02:40.056Z,96717.72
2018-04-02T20:05:08.346Z,96713.30
2018-04-02T20:07:36.622Z,96709.30
2018-04-02T20:10:04.942Z,96700.02
2018-04-02T20:12:33.198Z,96693.91
2018-04-02T20:15:01.493Z,96691.97
2018-04-02T20:17:29.748Z,96689.69
2018-04-02T20:19:58.042Z,96694.27
2018-04-02T20:22:26.331Z,96703.76
2018-04-02T20:24:54.607Z,96709.42
2018-04-02T20:27:22.872Z,96716.10
2018-04-02T20:29:51.175Z,96723.11
2018-04-02T20:32:20.211Z,96728.73
2018-04-02T20:34:49.315Z,96743.35
2018-04-02T20:37:17.573Z,96757.46
2018-04-02T20:39:45.891Z,96753.77
2018-04-02T20:42:14.182Z,96756.73
2018-04-02T20:44:42.452Z,96749.40
2018-04-02T20:47:11.484Z,96756.14
2018-04-02T20:49:39.760Z,96748.56
2018-04-02T20:52:08.029Z,96756.14
2018-04-02T20:54:36.313Z,96758.42
2018-04-02T20:57:05.363Z,96746.63
2018-04-02T20:59:33.716Z,96767.05
2018-04-02T21:02:01.989Z,96737.95
2018-04-02T21:04:30.373Z,96751.16
2018-04-02T21:06:59.418Z,96763.76
2018-04-02T21:09:29.293Z,96759.03
2018-04-02T21:12:00.526Z,96746.59
2018-04-02T21:14:29.643Z,96756.77
2018-04-02T21:16:57.928Z,96760.70
2018-04-02T21:19:26.283Z,96767.59
2018-04-02T21:21:55.337Z,96760.22
2018-04-02T21:24:23.741Z,96763.84
2018-04-02T21:26:52.032Z,96749.30
2018-04-02T21:29:20.310Z,96752.73
2018-04-02T21:31:48.584Z,96764.97
2018-04-02T21:34:17.600Z,96770.99
2018-04-02T21:36:45.983Z,96772.39
2018-04-02T21:39:14.268Z,96760.03
2018-04-02T21:41:42.548Z,96765.39
2018-04-02T21:44:10.807Z,96777.81
2018-04-02T21:46:39.863Z,96772.80
2018-04-02T21:49:08.169Z,96780.62
2018-04-02T21:51:36.431Z,96767.31
2018-04-02T21:54:04.697Z,96740.05
2018-04-02T21:56:33.771Z,96745.54
2018-04-02T21:59:02.140Z,96731.15
2018-04-02T22:01:30.433Z,96717.63
2018-04-02T22:03:58.703Z,96724.68
2018-04-02T22:06:44.864Z,96724.93
2018-04-02T22:09:13.111Z,96720.67
2018-04-02T22:11:41.388Z,96722.50
2018-04-02T22:14:09.646Z,96723.47
2018-04-02T22:16:38.703Z,96725.22
2018-04-02T22:19:06.962Z,96729.89
2018-04-02T22:21:36.071Z,96724.42
2018-04-02T22:24:05.864Z,96707.85
2018-04-02T22:26:34.916Z,96696.62
2018-04-02T22:29:03.218Z,96691.92
2018-04-02T22:31:31.486Z,96696.01
2018-04-02T22:33:59.767Z,96692.10
2018-04-02T22:36:28.832Z,96692.18
2018-04-02T22:38:57.244Z,96693.68
2018-04-02T22:41:26.318Z,96693.91
2018-04-02T22:43:54.637Z,96700.91
2018-04-02T22:46:22.969Z,96707.09
2018-04-02T22:48:51.235Z,96714.34
2018-04-02T22:51:20.287Z,96718.29
2018-04-02T22:53:48.541Z,96727.46
2018-04-02T22:56:16.818Z,96723.45
2018-04-02T22:58:45.876Z,96730.47
2018-04-02T23:01:14.188Z,96734.13
2018-04-02T23:03:43.227Z,96737.61
2018-04-02T23:06:11.510Z,96740.74
2018-04-02T23:08:40.902Z,96736.14
2018-04-02T23:11:10.265Z,96730.33
2018-04-02T23:13:38.535Z,96741.63
2018-04-02T23:16:07.725Z,96735.10
2018-04-02T23:18:36.002Z,96734.62
2018-04-02T23:21:04.253Z,96735.66
2018-04-02T23:23:32.544Z,96733.23
2018-04-02T23:26:00.823Z,96737.66
2018-04-02T23:28:29.108Z,96739.47
2018-04-02T23:30:57.470Z,96746.77
2018-04-02T23:33:27.300Z,96746.06
2018-04-02T23:35:56.430Z,96745.30
2018-04-02T23:38:24.742Z,96727.35
2018-04-02T23:40:53.000Z,96776.00
2018-04-02T23:43:21.270Z,96752.49
2018-04-02T23:45:50.296Z,96747.23
2018-04-02T23:48:18.607Z,96757.74
2018-04-02T23:50:46.858Z,96764.68
2018-04-02T23:53:15.935Z,96752.15
2018-04-02T23:55:44.983Z,96749.70
2018-04-02T23:58:14.016Z,96754.66
